KTMA/TMA METAR and TAF weather

Enter ICAO airport designator
Station Type Date Time Source
KTMA METAR 2019/04/24 21:55 UTC NOAA

KTMA 242155Z AUTO 19006KT 10SM CLR 27/12 A2998 RMK AO2 T02730118


Station Type Date Time Source
KTMA Decoded METAR 2019/04/24 21:55 UTC NOAA

Station name not available
Apr 24, 2019 - 05:55 PM EDT / 2019.04.24 2155 UTC
Wind: from the S (190 degrees) at 7 MPH (6 KT):0
Visibility: 10 mile(s):0
Sky conditions: clear
Temperature: 81.1 F (27.3 C)
Dew Point: 53.2 F (11.8 C)
Relative Humidity: 38%
Pressure (altimeter): 29.98 in. Hg (1015 hPa)
ob: KTMA 242155Z AUTO 19006KT 10SM CLR 27/12 A2998 RMK AO2 T02730118
cycle: 22

Station Type Date Time Source
KTMA TAF UTC NOAA

Error!

Example: see airport list